sensor_id;sensor_type;location;lat;lon;timestamp;temperature;humidity
22114;DHT22;11223;49.968;9.062;2022-12-18T00:01:03;-9.10;99.90
22114;DHT22;11223;49.968;9.062;2022-12-18T00:03:34;-9.20;99.90
22114;DHT22;11223;49.968;9.062;2022-12-18T00:06:00;-9.30;99.90
22114;DHT22;11223;49.968;9.062;2022-12-18T00:08:25;-9.40;99.90
22114;DHT22;11223;49.968;9.062;2022-12-18T00:10:51;-9.50;99.90
22114;DHT22;11223;49.968;9.062;2022-12-18T00:13:17;-9.50;99.90
22114;DHT22;11223;49.968;9.062;2022-12-18T00:15:42;-9.50;99.90
22114;DHT22;11223;49.968;9.062;2022-12-18T00:18:08;-9.50;99.90
22114;DHT22;11223;49.968;9.062;2022-12-18T00:20:38;-9.50;99.90
22114;DHT22;11223;49.968;9.062;2022-12-18T00:23:05;-9.50;99.90
22114;DHT22;11223;49.968;9.062;2022-12-18T00:25:33;-9.50;99.90
22114;DHT22;11223;49.968;9.062;2022-12-18T00:28:00;-9.60;99.90
22114;DHT22;11223;49.968;9.062;2022-12-18T00:30:26;-9.60;99.90
22114;DHT22;11223;49.968;9.062;2022-12-18T00:32:52;-9.70;99.90
22114;DHT22;11223;49.968;9.062;2022-12-18T00:35:17;-9.70;99.90
22114;DHT22;11223;49.968;9.062;2022-12-18T00:37:43;-9.70;99.90
22114;DHT22;11223;49.968;9.062;2022-12-18T00:40:09;-9.80;99.90
22114;DHT22;11223;49.968;9.062;2022-12-18T00:42:35;-9.80;99.90
22114;DHT22;11223;49.968;9.062;2022-12-18T00:45:19;-9.80;99.90
22114;DHT22;11223;49.968;9.062;2022-12-18T00:47:45;-9.80;99.90
22114;DHT22;11223;49.968;9.062;2022-12-18T00:50:10;-9.90;99.90
22114;DHT22;11223;49.968;9.062;2022-12-18T00:52:36;-9.90;99.90
22114;DHT22;11223;49.968;9.062;2022-12-18T00:55:01;-10.00;99.90
22114;DHT22;11223;49.968;9.062;2022-12-18T00:57:27;-10.10;99.90
22114;DHT22;11223;49.968;9.062;2022-12-18T00:59:53;-10.10;99.90
22114;DHT22;11223;49.968;9.062;2022-12-18T01:02:18;-10.10;99.90
22114;DHT22;11223;49.968;9.062;2022-12-18T01:04:44;-10.10;99.90
22114;DHT22;11223;49.968;9.062;2022-12-18T01:07:09;-10.20;99.90
22114;DHT22;11223;49.968;9.062;2022-12-18T01:09:35;-10.10;99.90
22114;DHT22;11223;49.968;9.062;2022-12-18T01:12:00;-10.10;99.90
22114;DHT22;11223;49.968;9.062;2022-12-18T01:14:26;-10.20;99.90
22114;DHT22;11223;49.968;9.062;2022-12-18T01:16:52;-10.20;99.90
22114;DHT22;11223;49.968;9.062;2022-12-18T01:19:17;-10.30;99.90
22114;DHT22;11223;49.968;9.062;2022-12-18T01:21:43;-10.20;99.90
22114;DHT22;11223;49.968;9.062;2022-12-18T01:24:11;-10.30;99.90
22114;DHT22;11223;49.968;9.062;2022-12-18T01:26:37;-10.30;99.90
22114;DHT22;11223;49.968;9.062;2022-12-18T01:29:03;-10.30;99.90
22114;DHT22;11223;49.968;9.062;2022-12-18T01:31:31;-10.30;99.90
22114;DHT22;11223;49.968;9.062;2022-12-18T01:34:00;-10.30;99.90
22114;DHT22;11223;49.968;9.062;2022-12-18T01:36:28;-10.30;99.90
22114;DHT22;11223;49.968;9.062;2022-12-18T01:38:54;-10.30;99.90
22114;DHT22;11223;49.968;9.062;2022-12-18T01:41:24;-10.30;99.90
22114;DHT22;11223;49.968;9.062;2022-12-18T01:46:16;-10.30;99.90
22114;DHT22;11223;49.968;9.062;2022-12-18T01:48:42;-10.30;99.90
22114;DHT22;11223;49.968;9.062;2022-12-18T01:51:10;-10.20;99.90
22114;DHT22;11223;49.968;9.062;2022-12-18T01:53:37;-10.20;99.90
22114;DHT22;11223;49.968;9.062;2022-12-18T01:56:04;-10.20;99.90
22114;DHT22;11223;49.968;9.062;2022-12-18T01:58:46;-10.20;99.90
22114;DHT22;11223;49.968;9.062;2022-12-18T02:01:13;-10.20;99.90
22114;DHT22;11223;49.968;9.062;2022-12-18T02:03:43;-10.30;99.90
22114;DHT22;11223;49.968;9.062;2022-12-18T02:06:36;-10.30;99.90
22114;DHT22;11223;49.968;9.062;2022-12-18T02:09:14;-10.20;99.90
22114;DHT22;11223;49.968;9.062;2022-12-18T02:11:53;-10.20;99.90
22114;DHT22;11223;49.968;9.062;2022-12-18T02:14:50;-10.20;99.90
22114;DHT22;11223;49.968;9.062;2022-12-18T02:17:22;-10.20;99.90
22114;DHT22;11223;49.968;9.062;2022-12-18T02:25:26;-10.20;99.90
22114;DHT22;11223;49.968;9.062;2022-12-18T02:27:57;-10.20;99.90
22114;DHT22;11223;49.968;9.062;2022-12-18T02:30:25;-10.20;99.90
22114;DHT22;11223;49.968;9.062;2022-12-18T02:32:53;-10.20;99.90
22114;DHT22;11223;49.968;9.062;2022-12-18T02:35:28;-10.20;99.90
22114;DHT22;11223;49.968;9.062;2022-12-18T02:37:55;-10.20;99.90
22114;DHT22;11223;49.968;9.062;2022-12-18T02:40:23;-10.20;99.90
22114;DHT22;11223;49.968;9.062;2022-12-18T02:42:49;-10.20;99.90
22114;DHT22;11223;49.968;9.062;2022-12-18T02:45:15;-10.20;99.90
22114;DHT22;11223;49.968;9.062;2022-12-18T02:47:44;-10.30;99.90
22114;DHT22;11223;49.968;9.062;2022-12-18T02:50:22;-10.30;99.90
22114;DHT22;11223;49.968;9.062;2022-12-18T02:53:17;-10.30;99.90
22114;DHT22;11223;49.968;9.062;2022-12-18T03:01:14;-10.20;99.90
22114;DHT22;11223;49.968;9.062;2022-12-18T03:04:04;-10.20;99.90
22114;DHT22;11223;49.968;9.062;2022-12-18T03:06:37;-10.30;99.90
22114;DHT22;11223;49.968;9.062;2022-12-18T03:09:10;-10.30;99.90
22114;DHT22;11223;49.968;9.062;2022-12-18T03:11:41;-10.30;99.90
22114;DHT22;11223;49.968;9.062;2022-12-18T03:14:29;-10.40;99.90
22114;DHT22;11223;49.968;9.062;2022-12-18T03:16:59;-10.40;99.90
22114;DHT22;11223;49.968;9.062;2022-12-18T03:19:28;-10.40;99.90
22114;DHT22;11223;49.968;9.062;2022-12-18T03:21:56;-10.40;99.90
22114;DHT22;11223;49.968;9.062;2022-12-18T03:24:24;-10.40;99.90
22114;DHT22;11223;49.968;9.062;2022-12-18T03:26:54;-10.40;99.90
22114;DHT22;11223;49.968;9.062;2022-12-18T03:29:26;-10.40;99.90
22114;DHT22;11223;49.968;9.062;2022-12-18T03:31:56;-10.50;99.90
22114;DHT22;11223;49.968;9.062;2022-12-18T03:34:30;-10.40;99.90
22114;DHT22;11223;49.968;9.062;2022-12-18T03:36:57;-10.40;99.90
22114;DHT22;11223;49.968;9.062;2022-12-18T03:39:24;-10.40;99.90
22114;DHT22;11223;49.968;9.062;2022-12-18T03:41:59;-10.40;99.90
22114;DHT22;11223;49.968;9.062;2022-12-18T03:44:40;-10.40;99.90
22114;DHT22;11223;49.968;9.062;2022-12-18T03:47:31;-10.30;99.90
22114;DHT22;11223;49.968;9.062;2022-12-18T03:50:26;-10.30;99.90
22114;DHT22;11223;49.968;9.062;2022-12-18T03:53:35;-10.30;99.90
22114;DHT22;11223;49.968;9.062;2022-12-18T03:56:04;-10.30;99.90
22114;DHT22;11223;49.968;9.062;2022-12-18T03:58:31;-10.20;99.90
22114;DHT22;11223;49.968;9.062;2022-12-18T04:01:01;-10.30;99.90
22114;DHT22;11223;49.968;9.062;2022-12-18T04:03:28;-10.30;99.90
22114;DHT22;11223;49.968;9.062;2022-12-18T04:05:55;-10.30;99.90
22114;DHT22;11223;49.968;9.062;2022-12-18T04:08:23;-10.30;99.90
22114;DHT22;11223;49.968;9.062;2022-12-18T04:10:49;-10.30;99.90
22114;DHT22;11223;49.968;9.062;2022-12-18T04:13:23;-10.20;99.90
22114;DHT22;11223;49.968;9.062;2022-12-18T04:15:48;-10.20;99.90
22114;DHT22;11223;49.968;9.062;2022-12-18T04:18:14;-10.20;99.90
22114;DHT22;11223;49.968;9.062;2022-12-18T04:20:40;-10.20;99.90
22114;DHT22;11223;49.968;9.062;2022-12-18T04:23:05;-10.20;99.90
22114;DHT22;11223;49.968;9.062;2022-12-18T04:25:31;-10.20;99.90
22114;DHT22;11223;49.968;9.062;2022-12-18T04:27:56;-10.20;99.90
22114;DHT22;11223;49.968;9.062;2022-12-18T04:30:22;-10.30;99.90
22114;DHT22;11223;49.968;9.062;2022-12-18T04:32:47;-10.30;99.90
22114;DHT22;11223;49.968;9.062;2022-12-18T04:35:13;-10.30;99.90
22114;DHT22;11223;49.968;9.062;2022-12-18T04:37:39;-10.40;99.90
22114;DHT22;11223;49.968;9.062;2022-12-18T04:40:05;-10.40;99.90
22114;DHT22;11223;49.968;9.062;2022-12-18T04:42:31;-10.40;99.90
22114;DHT22;11223;49.968;9.062;2022-12-18T04:44:56;-10.40;99.90
22114;DHT22;11223;49.968;9.062;2022-12-18T04:47:22;-10.40;99.90
22114;DHT22;11223;49.968;9.062;2022-12-18T04:49:47;-10.40;99.90
22114;DHT22;11223;49.968;9.062;2022-12-18T04:52:13;-10.40;99.90
22114;DHT22;11223;49.968;9.062;2022-12-18T04:54:39;-10.40;99.90
22114;DHT22;11223;49.968;9.062;2022-12-18T04:57:04;-10.40;99.90
22114;DHT22;11223;49.968;9.062;2022-12-18T04:59:30;-10.50;99.90
22114;DHT22;11223;49.968;9.062;2022-12-18T05:01:55;-10.50;99.90
22114;DHT22;11223;49.968;9.062;2022-12-18T05:04:21;-10.50;99.90
22114;DHT22;11223;49.968;9.062;2022-12-18T05:06:47;-10.50;99.90
22114;DHT22;11223;49.968;9.062;2022-12-18T05:09:12;-10.50;99.90
22114;DHT22;11223;49.968;9.062;2022-12-18T05:11:38;-10.50;99.90
22114;DHT22;11223;49.968;9.062;2022-12-18T05:14:04;-10.50;99.90
22114;DHT22;11223;49.968;9.062;2022-12-18T05:16:29;-10.50;99.90
22114;DHT22;11223;49.968;9.062;2022-12-18T05:18:55;-10.50;99.90
22114;DHT22;11223;49.968;9.062;2022-12-18T05:21:21;-10.50;99.90
22114;DHT22;11223;49.968;9.062;2022-12-18T05:23:46;-10.50;99.90
22114;DHT22;11223;49.968;9.062;2022-12-18T05:26:15;-10.40;99.90
22114;DHT22;11223;49.968;9.062;2022-12-18T05:28:41;-10.40;99.90
22114;DHT22;11223;49.968;9.062;2022-12-18T05:31:07;-10.50;99.90
22114;DHT22;11223;49.968;9.062;2022-12-18T05:33:34;-10.40;99.90
22114;DHT22;11223;49.968;9.062;2022-12-18T05:36:02;-10.30;99.90
22114;DHT22;11223;49.968;9.062;2022-12-18T05:38:30;-10.30;99.90
22114;DHT22;11223;49.968;9.062;2022-12-18T05:40:57;-10.20;99.90
22114;DHT22;11223;49.968;9.062;2022-12-18T05:43:24;-10.10;99.90
22114;DHT22;11223;49.968;9.062;2022-12-18T05:45:51;-10.10;99.90
22114;DHT22;11223;49.968;9.062;2022-12-18T05:48:17;-10.10;99.90
22114;DHT22;11223;49.968;9.062;2022-12-18T05:50:44;-10.10;99.90
22114;DHT22;11223;49.968;9.062;2022-12-18T05:53:14;-10.00;99.90
22114;DHT22;11223;49.968;9.062;2022-12-18T05:55:41;-10.00;99.90
22114;DHT22;11223;49.968;9.062;2022-12-18T05:58:09;-10.00;99.90
22114;DHT22;11223;49.968;9.062;2022-12-18T06:00:37;-10.00;99.90
22114;DHT22;11223;49.968;9.062;2022-12-18T06:03:07;-10.00;99.90
22114;DHT22;11223;49.968;9.062;2022-12-18T06:05:38;-10.00;99.90
22114;DHT22;11223;49.968;9.062;2022-12-18T06:08:04;-10.00;99.90
22114;DHT22;11223;49.968;9.062;2022-12-18T06:10:30;-10.10;99.90
22114;DHT22;11223;49.968;9.062;2022-12-18T06:12:55;-10.20;99.90
22114;DHT22;11223;49.968;9.062;2022-12-18T06:15:21;-10.20;99.90
22114;DHT22;11223;49.968;9.062;2022-12-18T06:17:47;-10.20;99.90
22114;DHT22;11223;49.968;9.062;2022-12-18T06:20:12;-10.20;99.90
22114;DHT22;11223;49.968;9.062;2022-12-18T06:22:38;-10.20;99.90
22114;DHT22;11223;49.968;9.062;2022-12-18T06:25:04;-10.30;99.90
22114;DHT22;11223;49.968;9.062;2022-12-18T06:27:30;-10.30;99.90
22114;DHT22;11223;49.968;9.062;2022-12-18T06:29:56;-10.30;99.90
22114;DHT22;11223;49.968;9.062;2022-12-18T06:32:21;-10.20;99.90
22114;DHT22;11223;49.968;9.062;2022-12-18T06:34:47;-10.20;99.90
22114;DHT22;11223;49.968;9.062;2022-12-18T06:37:13;-10.30;99.90
22114;DHT22;11223;49.968;9.062;2022-12-18T06:39:38;-10.30;99.90
22114;DHT22;11223;49.968;9.062;2022-12-18T06:42:04;-10.30;99.90
22114;DHT22;11223;49.968;9.062;2022-12-18T06:44:30;-10.30;99.90
22114;DHT22;11223;49.968;9.062;2022-12-18T06:46:55;-10.40;99.90
22114;DHT22;11223;49.968;9.062;2022-12-18T06:49:21;-10.40;99.90
22114;DHT22;11223;49.968;9.062;2022-12-18T06:51:46;-10.40;99.90
22114;DHT22;11223;49.968;9.062;2022-12-18T06:54:12;-10.40;99.90
22114;DHT22;11223;49.968;9.062;2022-12-18T06:56:38;-10.50;99.90
22114;DHT22;11223;49.968;9.062;2022-12-18T06:59:04;-10.50;99.90
22114;DHT22;11223;49.968;9.062;2022-12-18T07:01:29;-10.50;99.90
22114;DHT22;11223;49.968;9.062;2022-12-18T07:03:56;-10.50;99.90
22114;DHT22;11223;49.968;9.062;2022-12-18T07:06:23;-10.50;99.90
22114;DHT22;11223;49.968;9.062;2022-12-18T07:08:50;-10.50;99.90
22114;DHT22;11223;49.968;9.062;2022-12-18T07:11:17;-10.60;99.90
22114;DHT22;11223;49.968;9.062;2022-12-18T07:13:43;-10.60;99.90
22114;DHT22;11223;49.968;9.062;2022-12-18T07:16:14;-10.60;99.90
22114;DHT22;11223;49.968;9.062;2022-12-18T07:18:40;-10.50;99.90
22114;DHT22;11223;49.968;9.062;2022-12-18T07:21:09;-10.50;99.90
22114;DHT22;11223;49.968;9.062;2022-12-18T07:23:35;-10.60;99.90
22114;DHT22;11223;49.968;9.062;2022-12-18T07:26:07;-10.60;99.90
22114;DHT22;11223;49.968;9.062;2022-12-18T07:28:33;-10.60;99.90
22114;DHT22;11223;49.968;9.062;2022-12-18T07:31:07;-10.60;99.90
22114;DHT22;11223;49.968;9.062;2022-12-18T07:33:34;-10.60;99.90
22114;DHT22;11223;49.968;9.062;2022-12-18T07:36:00;-10.60;99.90
22114;DHT22;11223;49.968;9.062;2022-12-18T07:38:26;-10.60;99.90
22114;DHT22;11223;49.968;9.062;2022-12-18T07:40:52;-10.60;99.90
22114;DHT22;11223;49.968;9.062;2022-12-18T07:43:18;-10.60;99.90
22114;DHT22;11223;49.968;9.062;2022-12-18T07:45:43;-10.50;99.90
22114;DHT22;11223;49.968;9.062;2022-12-18T07:48:09;-10.50;99.90
22114;DHT22;11223;49.968;9.062;2022-12-18T07:50:35;-10.40;99.90
22114;DHT22;11223;49.968;9.062;2022-12-18T07:53:00;-10.40;99.90
22114;DHT22;11223;49.968;9.062;2022-12-18T07:55:29;-10.30;99.90
22114;DHT22;11223;49.968;9.062;2022-12-18T07:57:55;-10.20;99.90
22114;DHT22;11223;49.968;9.062;2022-12-18T08:00:21;-10.20;99.90
22114;DHT22;11223;49.968;9.062;2022-12-18T08:02:46;-10.10;99.90
22114;DHT22;11223;49.968;9.062;2022-12-18T08:05:12;-10.10;99.90
22114;DHT22;11223;49.968;9.062;2022-12-18T08:07:39;-10.10;99.90
22114;DHT22;11223;49.968;9.062;2022-12-18T08:10:05;-10.00;99.90
22114;DHT22;11223;49.968;9.062;2022-12-18T08:12:31;-9.90;99.90
22114;DHT22;11223;49.968;9.062;2022-12-18T08:14:56;-9.90;99.90
22114;DHT22;11223;49.968;9.062;2022-12-18T08:17:22;-9.80;99.90
22114;DHT22;11223;49.968;9.062;2022-12-18T08:19:48;-9.60;99.90
22114;DHT22;11223;49.968;9.062;2022-12-18T08:22:13;-9.50;99.90
22114;DHT22;11223;49.968;9.062;2022-12-18T08:24:39;-9.20;99.90
22114;DHT22;11223;49.968;9.062;2022-12-18T08:27:04;-8.80;99.90
22114;DHT22;11223;49.968;9.062;2022-12-18T08:29:30;-8.50;99.90
22114;DHT22;11223;49.968;9.062;2022-12-18T08:31:57;-8.10;99.90
22114;DHT22;11223;49.968;9.062;2022-12-18T08:34:22;-7.70;99.90
22114;DHT22;11223;49.968;9.062;2022-12-18T08:36:48;-7.40;99.90
22114;DHT22;11223;49.968;9.062;2022-12-18T08:39:13;-7.00;99.90
22114;DHT22;11223;49.968;9.062;2022-12-18T08:41:39;-6.70;99.90
22114;DHT22;11223;49.968;9.062;2022-12-18T08:44:06;-6.50;99.90
22114;DHT22;11223;49.968;9.062;2022-12-18T08:46:51;-6.20;99.90
22114;DHT22;11223;49.968;9.062;2022-12-18T08:49:16;-5.90;99.90
22114;DHT22;11223;49.968;9.062;2022-12-18T08:51:42;-5.40;99.90
22114;DHT22;11223;49.968;9.062;2022-12-18T08:54:11;-5.00;99.90
22114;DHT22;11223;49.968;9.062;2022-12-18T08:56:36;-4.70;99.90
22114;DHT22;11223;49.968;9.062;2022-12-18T08:59:02;-4.20;99.90
22114;DHT22;11223;49.968;9.062;2022-12-18T09:01:29;-3.80;99.90
22114;DHT22;11223;49.968;9.062;2022-12-18T09:03:55;-3.50;99.90
22114;DHT22;11223;49.968;9.062;2022-12-18T09:06:22;-3.20;99.90
22114;DHT22;11223;49.968;9.062;2022-12-18T09:08:47;-2.80;99.90
22114;DHT22;11223;49.968;9.062;2022-12-18T09:11:21;-2.50;99.90
22114;DHT22;11223;49.968;9.062;2022-12-18T09:13:47;-2.40;99.90
22114;DHT22;11223;49.968;9.062;2022-12-18T09:16:13;-2.30;99.90
22114;DHT22;11223;49.968;9.062;2022-12-18T09:18:38;-2.20;99.90
22114;DHT22;11223;49.968;9.062;2022-12-18T09:21:18;-2.20;99.90
22114;DHT22;11223;49.968;9.062;2022-12-18T09:23:55;-2.10;99.90
22114;DHT22;11223;49.968;9.062;2022-12-18T09:26:22;-1.90;99.90
22114;DHT22;11223;49.968;9.062;2022-12-18T09:28:48;-1.80;99.90
22114;DHT22;11223;49.968;9.062;2022-12-18T09:31:13;-1.80;99.90
22114;DHT22;11223;49.968;9.062;2022-12-18T09:33:39;-2.20;99.90
22114;DHT22;11223;49.968;9.062;2022-12-18T09:36:07;-2.60;99.90
22114;DHT22;11223;49.968;9.062;2022-12-18T09:38:33;-2.70;99.90
22114;DHT22;11223;49.968;9.062;2022-12-18T09:41:05;-2.50;99.90
22114;DHT22;11223;49.968;9.062;2022-12-18T09:43:45;-2.60;99.90
22114;DHT22;11223;49.968;9.062;2022-12-18T09:46:19;-2.90;99.90
22114;DHT22;11223;49.968;9.062;2022-12-18T09:48:49;-3.30;99.90
22114;DHT22;11223;49.968;9.062;2022-12-18T09:51:27;-3.60;99.90
22114;DHT22;11223;49.968;9.062;2022-12-18T09:53:58;-3.80;99.90
22114;DHT22;11223;49.968;9.062;2022-12-18T09:56:28;-4.10;99.90
22114;DHT22;11223;49.968;9.062;2022-12-18T09:59:02;-4.20;99.90
22114;DHT22;11223;49.968;9.062;2022-12-18T10:01:29;-4.30;99.90
22114;DHT22;11223;49.968;9.062;2022-12-18T10:03:55;-4.30;99.90
22114;DHT22;11223;49.968;9.062;2022-12-18T10:06:41;-4.30;99.90
22114;DHT22;11223;49.968;9.062;2022-12-18T10:09:26;-4.40;99.90
22114;DHT22;11223;49.968;9.062;2022-12-18T10:14:50;-4.40;99.90
22114;DHT22;11223;49.968;9.062;2022-12-18T10:19:54;-4.20;99.90
22114;DHT22;11223;49.968;9.062;2022-12-18T10:25:15;-4.10;99.90
22114;DHT22;11223;49.968;9.062;2022-12-18T10:27:41;-4.10;99.90
22114;DHT22;11223;49.968;9.062;2022-12-18T10:30:19;-4.10;99.90
22114;DHT22;11223;49.968;9.062;2022-12-18T10:32:45;-4.10;99.90
22114;DHT22;11223;49.968;9.062;2022-12-18T10:43:26;-4.40;99.90
22114;DHT22;11223;49.968;9.062;2022-12-18T10:48:27;-4.40;99.90
22114;DHT22;11223;49.968;9.062;2022-12-18T10:50:53;-4.40;99.90
22114;DHT22;11223;49.968;9.062;2022-12-18T10:53:25;-4.40;99.90
22114;DHT22;11223;49.968;9.062;2022-12-18T10:55:53;-4.30;99.90
22114;DHT22;11223;49.968;9.062;2022-12-18T11:03:42;-4.20;99.90
22114;DHT22;11223;49.968;9.062;2022-12-18T11:06:17;-4.10;99.90
22114;DHT22;11223;49.968;9.062;2022-12-18T11:08:45;-4.00;99.90
22114;DHT22;11223;49.968;9.062;2022-12-18T11:11:23;-3.90;99.90
22114;DHT22;11223;49.968;9.062;2022-12-18T11:14:03;-3.80;99.90
22114;DHT22;11223;49.968;9.062;2022-12-18T11:16:35;-3.80;99.90
22114;DHT22;11223;49.968;9.062;2022-12-18T11:21:47;-3.70;99.90
22114;DHT22;11223;49.968;9.062;2022-12-18T11:24:34;-3.60;99.90
22114;DHT22;11223;49.968;9.062;2022-12-18T11:27:02;-3.60;99.90
22114;DHT22;11223;49.968;9.062;2022-12-18T11:29:35;-3.40;99.90
22114;DHT22;11223;49.968;9.062;2022-12-18T11:32:38;-3.30;99.90
22114;DHT22;11223;49.968;9.062;2022-12-18T11:35:17;-3.20;99.90
22114;DHT22;11223;49.968;9.062;2022-12-18T11:37:47;-3.20;99.90
22114;DHT22;11223;49.968;9.062;2022-12-18T11:40:18;-3.20;99.90
22114;DHT22;11223;49.968;9.062;2022-12-18T11:42:50;-3.10;99.90
22114;DHT22;11223;49.968;9.062;2022-12-18T11:45:27;-3.20;99.90
22114;DHT22;11223;49.968;9.062;2022-12-18T11:48:24;-3.20;99.90
22114;DHT22;11223;49.968;9.062;2022-12-18T11:50:54;-3.20;99.90
22114;DHT22;11223;49.968;9.062;2022-12-18T11:53:21;-3.20;99.90
22114;DHT22;11223;49.968;9.062;2022-12-18T11:58:42;-3.10;99.90
22114;DHT22;11223;49.968;9.062;2022-12-18T12:01:31;-3.10;99.90
22114;DHT22;11223;49.968;9.062;2022-12-18T12:09:36;-3.00;99.90
22114;DHT22;11223;49.968;9.062;2022-12-18T12:20:46;-2.90;99.90
22114;DHT22;11223;49.968;9.062;2022-12-18T12:26:25;-2.80;99.90
22114;DHT22;11223;49.968;9.062;2022-12-18T12:29:03;-2.70;99.90
22114;DHT22;11223;49.968;9.062;2022-12-18T12:37:59;-2.60;99.90
22114;DHT22;11223;49.968;9.062;2022-12-18T12:40:30;-2.60;99.90
22114;DHT22;11223;49.968;9.062;2022-12-18T12:43:03;-2.60;99.90
22114;DHT22;11223;49.968;9.062;2022-12-18T12:45:48;-2.50;99.90
22114;DHT22;11223;49.968;9.062;2022-12-18T12:48:40;-2.50;99.90
22114;DHT22;11223;49.968;9.062;2022-12-18T12:51:23;-2.50;99.90
22114;DHT22;11223;49.968;9.062;2022-12-18T12:53:50;-2.50;99.90
22114;DHT22;11223;49.968;9.062;2022-12-18T12:56:19;-2.50;99.90
22114;DHT22;11223;49.968;9.062;2022-12-18T12:59:09;-2.50;99.90
22114;DHT22;11223;49.968;9.062;2022-12-18T13:02:22;-2.50;99.90
22114;DHT22;11223;49.968;9.062;2022-12-18T13:05:11;-2.50;99.90
22114;DHT22;11223;49.968;9.062;2022-12-18T13:07:51;-2.50;99.90
22114;DHT22;11223;49.968;9.062;2022-12-18T13:36:41;-2.50;99.90
22114;DHT22;11223;49.968;9.062;2022-12-18T13:39:22;-2.50;99.90
22114;DHT22;11223;49.968;9.062;2022-12-18T13:41:51;-2.50;99.90
22114;DHT22;11223;49.968;9.062;2022-12-18T13:44:33;-2.50;99.90
22114;DHT22;11223;49.968;9.062;2022-12-18T13:47:00;-2.50;99.90
22114;DHT22;11223;49.968;9.062;2022-12-18T13:52:03;-2.40;99.90
22114;DHT22;11223;49.968;9.062;2022-12-18T13:54:41;-2.40;99.90
22114;DHT22;11223;49.968;9.062;2022-12-18T13:57:43;-2.40;99.90
22114;DHT22;11223;49.968;9.062;2022-12-18T14:00:28;-2.40;99.90
22114;DHT22;11223;49.968;9.062;2022-12-18T14:02:58;-2.40;99.90
22114;DHT22;11223;49.968;9.062;2022-12-18T14:05:29;-2.40;99.90
22114;DHT22;11223;49.968;9.062;2022-12-18T14:08:10;-2.40;99.90
22114;DHT22;11223;49.968;9.062;2022-12-18T14:10:40;-2.40;99.90
22114;DHT22;11223;49.968;9.062;2022-12-18T14:13:08;-2.30;99.90
22114;DHT22;11223;49.968;9.062;2022-12-18T14:15:43;-2.30;99.90
22114;DHT22;11223;49.968;9.062;2022-12-18T14:21:03;-2.30;99.90
22114;DHT22;11223;49.968;9.062;2022-12-18T14:23:40;-2.30;99.90
22114;DHT22;11223;49.968;9.062;2022-12-18T14:26:28;-2.30;99.90
22114;DHT22;11223;49.968;9.062;2022-12-18T14:28:59;-2.30;99.90
22114;DHT22;11223;49.968;9.062;2022-12-18T14:31:30;-2.30;99.90
22114;DHT22;11223;49.968;9.062;2022-12-18T14:33:56;-2.30;99.90
22114;DHT22;11223;49.968;9.062;2022-12-18T14:36:27;-2.30;99.90
22114;DHT22;11223;49.968;9.062;2022-12-18T14:38:55;-2.30;99.90
22114;DHT22;11223;49.968;9.062;2022-12-18T14:41:22;-2.30;99.90
22114;DHT22;11223;49.968;9.062;2022-12-18T14:43:52;-2.40;99.90
22114;DHT22;11223;49.968;9.062;2022-12-18T14:48:59;-2.40;99.90
22114;DHT22;11223;49.968;9.062;2022-12-18T14:51:28;-2.50;99.90
22114;DHT22;11223;49.968;9.062;2022-12-18T14:53:57;-2.40;99.90
22114;DHT22;11223;49.968;9.062;2022-12-18T14:56:26;-2.40;99.90
22114;DHT22;11223;49.968;9.062;2022-12-18T14:58:58;-2.40;99.90
22114;DHT22;11223;49.968;9.062;2022-12-18T15:03:55;-2.50;99.90
22114;DHT22;11223;49.968;9.062;2022-12-18T15:06:27;-2.50;99.90
22114;DHT22;11223;49.968;9.062;2022-12-18T15:08:54;-2.50;99.90
22114;DHT22;11223;49.968;9.062;2022-12-18T15:11:46;-2.50;99.90
22114;DHT22;11223;49.968;9.062;2022-12-18T15:14:33;-2.60;99.90
22114;DHT22;11223;49.968;9.062;2022-12-18T15:17:06;-2.60;99.90
22114;DHT22;11223;49.968;9.062;2022-12-18T15:19:41;-2.60;99.90
22114;DHT22;11223;49.968;9.062;2022-12-18T15:22:30;-2.70;99.90
22114;DHT22;11223;49.968;9.062;2022-12-18T15:24:59;-2.70;99.90
22114;DHT22;11223;49.968;9.062;2022-12-18T15:27:32;-2.70;99.90
22114;DHT22;11223;49.968;9.062;2022-12-18T15:32:36;-2.80;99.90
22114;DHT22;11223;49.968;9.062;2022-12-18T15:35:16;-2.80;99.90
22114;DHT22;11223;49.968;9.062;2022-12-18T15:37:42;-2.80;99.90
22114;DHT22;11223;49.968;9.062;2022-12-18T15:40:12;-2.80;99.90
22114;DHT22;11223;49.968;9.062;2022-12-18T15:42:38;-2.80;99.90
22114;DHT22;11223;49.968;9.062;2022-12-18T15:45:22;-2.90;99.90
22114;DHT22;11223;49.968;9.062;2022-12-18T15:47:48;-2.90;99.90
22114;DHT22;11223;49.968;9.062;2022-12-18T15:50:14;-2.90;99.90
22114;DHT22;11223;49.968;9.062;2022-12-18T15:52:48;-2.90;99.90
22114;DHT22;11223;49.968;9.062;2022-12-18T15:55:21;-2.90;99.90
22114;DHT22;11223;49.968;9.062;2022-12-18T15:58:06;-2.90;99.90
22114;DHT22;11223;49.968;9.062;2022-12-18T16:00:33;-2.90;99.90
22114;DHT22;11223;49.968;9.062;2022-12-18T16:02:59;-2.90;99.90
22114;DHT22;11223;49.968;9.062;2022-12-18T16:05:26;-2.90;99.90
22114;DHT22;11223;49.968;9.062;2022-12-18T16:07:52;-2.90;99.90
22114;DHT22;11223;49.968;9.062;2022-12-18T16:10:19;-2.80;99.90
22114;DHT22;11223;49.968;9.062;2022-12-18T16:12:44;-2.90;99.90
22114;DHT22;11223;49.968;9.062;2022-12-18T16:15:13;-2.80;99.90
22114;DHT22;11223;49.968;9.062;2022-12-18T16:17:48;-2.80;99.90
22114;DHT22;11223;49.968;9.062;2022-12-18T16:20:18;-2.80;99.90
22114;DHT22;11223;49.968;9.062;2022-12-18T16:22:46;-2.90;99.90
22114;DHT22;11223;49.968;9.062;2022-12-18T16:25:23;-2.80;99.90
22114;DHT22;11223;49.968;9.062;2022-12-18T16:27:50;-2.80;99.90
22114;DHT22;11223;49.968;9.062;2022-12-18T16:30:21;-2.80;99.90
22114;DHT22;11223;49.968;9.062;2022-12-18T16:32:47;-2.80;99.90
22114;DHT22;11223;49.968;9.062;2022-12-18T16:35:14;-2.80;99.90
22114;DHT22;11223;49.968;9.062;2022-12-18T16:37:41;-2.80;99.90
22114;DHT22;11223;49.968;9.062;2022-12-18T16:40:08;-2.80;99.90
22114;DHT22;11223;49.968;9.062;2022-12-18T16:42:36;-2.80;99.90
22114;DHT22;11223;49.968;9.062;2022-12-18T16:45:03;-2.80;99.90
22114;DHT22;11223;49.968;9.062;2022-12-18T16:47:29;-2.80;99.90
22114;DHT22;11223;49.968;9.062;2022-12-18T16:49:55;-2.70;99.90
22114;DHT22;11223;49.968;9.062;2022-12-18T16:52:21;-2.80;99.90
22114;DHT22;11223;49.968;9.062;2022-12-18T16:54:46;-2.70;99.90
22114;DHT22;11223;49.968;9.062;2022-12-18T16:57:14;-2.70;99.90
22114;DHT22;11223;49.968;9.062;2022-12-18T16:59:40;-2.70;99.90
22114;DHT22;11223;49.968;9.062;2022-12-18T17:02:15;-2.70;99.90
22114;DHT22;11223;49.968;9.062;2022-12-18T17:04:42;-2.60;99.90
22114;DHT22;11223;49.968;9.062;2022-12-18T17:07:09;-2.60;99.90
22114;DHT22;11223;49.968;9.062;2022-12-18T17:09:35;-2.70;99.90
22114;DHT22;11223;49.968;9.062;2022-12-18T17:12:00;-2.70;99.90
22114;DHT22;11223;49.968;9.062;2022-12-18T17:14:26;-2.60;99.90
22114;DHT22;11223;49.968;9.062;2022-12-18T17:16:55;-2.70;99.90
22114;DHT22;11223;49.968;9.062;2022-12-18T17:19:25;-2.60;99.90
22114;DHT22;11223;49.968;9.062;2022-12-18T17:21:51;-2.60;99.90
22114;DHT22;11223;49.968;9.062;2022-12-18T17:24:17;-2.60;99.90
22114;DHT22;11223;49.968;9.062;2022-12-18T17:26:43;-2.60;99.90
22114;DHT22;11223;49.968;9.062;2022-12-18T17:29:13;-2.60;99.90